Time;durP1;ratioP1;P1;durP2;ratioP2;P2;SDS_P1;SDS_P2;PMS_P1;PMS_P2;Temp;Humidity;BMP_temperature;BMP_pressure;BME280_temperature;BME280_humidity;BME280_pressure;Samples;Min_cycle;Max_cycle;Signal;HPM_P1;HPM_P2
2022/01/08 00:00:15;;;;;;;8.63;1.70;;;1.10;99.90;;;;;;5055530;28;20462;-83
2022/01/08 00:02:42;;;;;;;5.28;2.15;;;1.20;99.90;;;;;;5054588;28;20108;-83
2022/01/08 00:05:09;;;;;;;7.82;1.80;;;1.10;99.90;;;;;;5055485;28;20017;-83
2022/01/08 00:07:35;;;;;;;7.30;1.98;;;1.10;99.90;;;;;;5054721;28;20490;-83
2022/01/08 00:10:01;;;;;;;6.45;1.83;;;1.10;99.90;;;;;;5055047;28;20049;-83
2022/01/08 00:12:26;;;;;;;5.85;2.30;;;1.10;99.90;;;;;;5054005;28;20025;-83
2022/01/08 00:14:52;;;;;;;5.22;2.17;;;1.30;99.90;;;;;;5055279;28;20033;-83
2022/01/08 00:17:17;;;;;;;5.28;2.00;;;1.30;99.90;;;;;;5053830;28;20044;-83
2022/01/08 00:19:43;;;;;;;7.68;1.90;;;1.20;99.90;;;;;;5053729;28;20073;-83
2022/01/08 00:22:11;;;;;;;8.98;1.67;;;1.20;99.90;;;;;;5055186;28;20017;-83
2022/01/08 00:24:36;;;;;;;3.70;1.58;;;1.20;99.90;;;;;;5053942;28;20025;-83
2022/01/08 00:27:04;;;;;;;3.75;1.25;;;1.10;99.90;;;;;;5055020;28;20535;-82
2022/01/08 00:29:29;;;;;;;5.30;1.25;;;1.20;99.90;;;;;;5053702;28;20021;-83
2022/01/08 00:31:55;;;;;;;5.68;0.80;;;1.30;99.90;;;;;;5054766;28;20104;-83
2022/01/08 00:34:20;;;;;;;5.30;0.80;;;1.60;99.90;;;;;;5054787;28;20103;-83
2022/01/08 00:36:59;;;;;;;2.95;0.40;;;2.00;99.90;;;;;;5054769;28;20096;-83
2022/01/08 00:39:24;;;;;;;1.00;0.40;;;2.30;99.90;;;;;;5053517;28;20500;-83
2022/01/08 00:41:50;;;;;;;3.38;0.40;;;2.40;99.90;;;;;;5054793;28;20021;-83
2022/01/08 00:44:18;;;;;;;1.23;0.10;;;2.50;99.90;;;;;;5054756;28;20032;-83
2022/01/08 00:46:43;;;;;;;1.25;0.30;;;2.50;99.90;;;;;;5053271;28;20159;-83
2022/01/08 00:49:09;;;;;;;2.65;0.40;;;2.60;99.90;;;;;;5053317;28;20064;-83
2022/01/08 00:51:35;;;;;;;0.95;0.40;;;2.60;99.90;;;;;;5053136;28;20480;-83
2022/01/08 00:54:00;;;;;;;2.20;0.43;;;2.60;99.90;;;;;;5053338;28;20017;-82
2022/01/08 00:56:26;;;;;;;2.38;0.32;;;2.60;99.90;;;;;;5054560;28;20017;-83
2022/01/08 00:58:51;;;;;;;3.83;0.70;;;2.50;99.90;;;;;;5054521;28;20025;-83
2022/01/08 01:01:17;;;;;;;1.63;0.40;;;2.50;99.90;;;;;;5053133;28;20021;-83
2022/01/08 01:03:42;;;;;;;3.22;0.40;;;2.50;99.90;;;;;;5054486;28;20092;-83
2022/01/08 01:06:08;;;;;;;0.82;0.30;;;2.50;99.90;;;;;;5054486;28;20731;-83
2022/01/08 01:08:34;;;;;;;4.63;0.85;;;2.40;99.90;;;;;;5054163;28;20049;-83
2022/01/08 01:10:59;;;;;;;2.95;0.30;;;2.40;99.90;;;;;;5053020;28;20029;-83
2022/01/08 01:13:25;;;;;;;3.35;0.70;;;2.40;99.90;;;;;;5052107;28;20369;-83
2022/01/08 01:15:51;;;;;;;2.88;0.50;;;2.40;99.90;;;;;;5053138;28;20021;-83
2022/01/08 01:18:17;;;;;;;3.60;0.88;;;2.30;99.90;;;;;;5053581;28;20024;-83
2022/01/08 01:20:43;;;;;;;3.55;0.40;;;2.40;99.90;;;;;;5051937;28;20029;-83
2022/01/08 01:23:19;;;;;;;3.30;0.52;;;2.40;99.90;;;;;;5052394;28;20380;-84
2022/01/08 01:25:52;;;;;;;2.00;0.55;;;2.60;99.90;;;;;;5052798;28;20036;-83
2022/01/08 01:41:12;;;;;;;4.20;0.43;;;2.60;99.90;;;;;;5054543;28;20036;-83
2022/01/08 01:47:05;;;;;;;2.53;0.40;;;2.30;99.90;;;;;;5034088;28;20420;-83
2022/01/08 01:49:31;;;;;;;2.83;0.30;;;2.40;99.90;;;;;;5032546;28;20037;-83
2022/01/08 01:51:59;;;;;;;4.40;0.30;;;2.30;99.90;;;;;;5033499;28;20021;-83
2022/01/08 01:54:25;;;;;;;2.17;0.30;;;2.30;99.90;;;;;;5032315;28;20018;-83
2022/01/08 01:56:51;;;;;;;0.98;0.15;;;2.40;99.90;;;;;;5033600;28;20045;-83
2022/01/08 01:59:16;;;;;;;1.02;0.20;;;2.40;99.90;;;;;;5032363;28;20057;-83
2022/01/08 02:01:42;;;;;;;1.30;0.30;;;2.50;99.90;;;;;;5031857;28;20473;-82
2022/01/08 02:04:08;;;;;;;3.05;0.75;;;2.50;99.90;;;;;;5032115;28;20025;-83
2022/01/08 02:06:33;;;;;;;0.98;0.20;;;2.70;99.90;;;;;;5033391;28;20083;-83
2022/01/08 02:08:59;;;;;;;1.48;0.35;;;2.70;99.90;;;;;;5050941;28;20059;-83
2022/01/08 02:11:24;;;;;;;1.02;0.60;;;2.80;99.90;;;;;;5051936;28;20511;-84
2022/01/08 02:13:50;;;;;;;5.32;0.50;;;2.90;99.90;;;;;;5052164;28;20400;-84
2022/01/08 02:16:32;;;;;;;2.10;0.47;;;2.90;99.90;;;;;;5052825;28;20715;-83
2022/01/08 02:18:57;;;;;;;3.92;0.63;;;2.90;99.90;;;;;;5051773;28;20029;-83
2022/01/08 02:21:31;;;;;;;2.35;0.65;;;2.90;99.90;;;;;;5051703;28;20033;-83
2022/01/08 02:23:57;;;;;;;2.80;0.40;;;2.80;99.90;;;;;;5051784;28;20025;-83
2022/01/08 02:26:22;;;;;;;4.47;0.60;;;2.80;99.90;;;;;;5051814;28;20607;-83
2022/01/08 02:28:47;;;;;;;6.57;0.75;;;2.90;99.90;;;;;;5053088;28;20032;-83
2022/01/08 02:31:23;;;;;;;4.10;1.00;;;2.80;99.90;;;;;;5055203;28;20033;-83
2022/01/08 02:33:49;;;;;;;1.92;0.70;;;2.70;99.90;;;;;;5057249;28;20036;-83
2022/01/08 02:36:16;;;;;;;5.72;0.90;;;2.80;99.90;;;;;;5055925;28;20021;-84
2022/01/08 02:38:42;;;;;;;3.20;0.75;;;3.00;99.90;;;;;;5057365;28;20025;-83
2022/01/08 02:41:07;;;;;;;8.27;0.82;;;3.00;99.90;;;;;;5057244;28;20040;-83
2022/01/08 02:43:40;;;;;;;6.68;1.05;;;3.00;99.90;;;;;;5057044;28;20430;-83
2022/01/08 02:46:06;;;;;;;5.95;1.25;;;2.50;99.90;;;;;;5057384;28;20025;-83
2022/01/08 02:48:31;;;;;;;4.75;1.17;;;2.40;99.90;;;;;;5055661;28;20086;-83
2022/01/08 02:50:57;;;;;;;5.13;0.90;;;2.20;99.90;;;;;;5056917;28;20041;-82
2022/01/08 02:53:22;;;;;;;3.40;0.80;;;2.10;99.90;;;;;;5056983;28;20020;-83
2022/01/08 02:55:49;;;;;;;5.47;0.90;;;1.90;99.90;;;;;;5056902;28;20017;-83
2022/01/08 02:58:15;;;;;;;2.20;0.57;;;1.90;99.90;;;;;;5056576;28;20104;-83
2022/01/08 03:00:40;;;;;;;3.58;0.47;;;1.90;99.90;;;;;;5055398;28;20400;-83
2022/01/08 03:03:06;;;;;;;4.13;0.57;;;1.90;99.90;;;;;;5056007;28;20021;-83
2022/01/08 03:05:32;;;;;;;3.95;0.70;;;1.90;99.90;;;;;;5056632;28;20025;-83
2022/01/08 03:07:57;;;;;;;3.42;0.82;;;2.10;99.90;;;;;;5055132;28;20381;-83
2022/01/08 03:10:23;;;;;;;5.03;1.20;;;2.20;99.90;;;;;;5055302;28;20037;-83
2022/01/08 03:12:49;;;;;;;3.63;0.90;;;2.10;99.90;;;;;;5056299;28;20025;-83
2022/01/08 03:15:21;;;;;;;2.92;0.85;;;2.20;99.90;;;;;;5054767;28;20110;-83
2022/01/08 03:17:47;;;;;;;3.72;0.40;;;2.30;99.90;;;;;;5056216;28;20163;-83
2022/01/08 03:20:14;;;;;;;1.77;0.30;;;2.40;99.90;;;;;;5056351;28;20041;-83
2022/01/08 03:22:43;;;;;;;3.95;0.40;;;2.60;99.90;;;;;;5055052;28;20021;-83
2022/01/08 03:25:10;;;;;;;7.93;0.80;;;2.70;99.90;;;;;;5056163;28;20041;-83
2022/01/08 03:27:36;;;;;;;3.58;0.65;;;2.80;99.90;;;;;;5056102;28;20032;-82
2022/01/08 03:30:06;;;;;;;6.43;0.60;;;2.80;99.90;;;;;;5056235;28;20412;-82
2022/01/08 03:32:31;;;;;;;5.93;0.70;;;2.80;99.90;;;;;;5056180;28;20399;-82
2022/01/08 03:34:57;;;;;;;2.58;0.40;;;2.70;99.90;;;;;;5055024;28;20472;-83
2022/01/08 03:37:23;;;;;;;2.47;0.70;;;2.80;99.90;;;;;;5056239;28;20393;-83
2022/01/08 03:39:48;;;;;;;3.20;0.45;;;2.80;99.90;;;;;;5056089;28;20021;-83
2022/01/08 03:42:14;;;;;;;3.22;0.93;;;3.00;99.90;;;;;;5053750;28;20104;-83
2022/01/08 03:44:40;;;;;;;4.53;1.00;;;3.00;99.90;;;;;;5055729;28;20484;-83
2022/01/08 03:49:50;;;;;;;1.20;0.38;;;2.80;99.90;;;;;;5056159;28;20120;-83
2022/01/08 03:52:16;;;;;;;3.72;0.70;;;2.80;99.90;;;;;;5054763;28;20452;-83
2022/01/08 03:54:41;;;;;;;3.70;0.80;;;2.70;99.90;;;;;;5055766;28;20055;-83
2022/01/08 03:57:07;;;;;;;4.65;0.55;;;2.70;99.90;;;;;;5055741;28;20049;-83
2022/01/08 03:59:33;;;;;;;3.88;0.60;;;2.60;99.90;;;;;;5054477;28;20730;-83
2022/01/08 04:01:59;;;;;;;4.28;1.20;;;2.50;99.90;;;;;;5055708;28;20044;-83
2022/01/08 04:04:25;;;;;;;3.08;0.30;;;2.30;99.90;;;;;;5055614;28;20029;-83
2022/01/08 04:06:51;;;;;;;5.75;0.82;;;2.20;99.90;;;;;;5054582;28;20448;-83
2022/01/08 04:09:17;;;;;;;3.22;0.50;;;2.10;99.90;;;;;;5054288;28;20073;-84
2022/01/08 04:11:43;;;;;;;3.75;0.50;;;1.80;99.90;;;;;;5054286;28;20040;-83
2022/01/08 04:14:09;;;;;;;1.48;0.40;;;1.80;99.90;;;;;;5054094;28;20626;-83
2022/01/08 04:16:38;;;;;;;2.72;0.57;;;1.80;99.90;;;;;;5054031;28;20028;-83
2022/01/08 04:19:03;;;;;;;0.55;0.40;;;1.70;99.90;;;;;;5053743;28;20495;-83
2022/01/08 04:24:00;;;;;;;2.08;0.55;;;1.40;99.90;;;;;;5055623;28;20025;-83
2022/01/08 04:26:26;;;;;;;0.65;0.45;;;1.30;99.90;;;;;;5055167;28;20025;-83
2022/01/08 04:28:55;;;;;;;4.03;0.75;;;1.20;99.90;;;;;;5053784;28;20032;-82
2022/01/08 04:31:22;;;;;;;3.40;0.60;;;1.20;99.90;;;;;;5055364;28;20037;-83
2022/01/08 04:33:48;;;;;;;4.78;0.88;;;1.10;99.90;;;;;;5055005;28;20044;-83
2022/01/08 04:36:13;;;;;;;2.08;0.60;;;1.20;99.90;;;;;;5054749;28;20103;-83
2022/01/08 04:38:39;;;;;;;5.68;0.88;;;1.10;99.90;;;;;;5054828;28;20028;-83
2022/01/08 04:41:05;;;;;;;2.47;1.00;;;1.00;99.90;;;;;;5054804;28;20451;-83
2022/01/08 04:43:31;;;;;;;9.48;1.10;;;1.00;99.90;;;;;;5053729;28;20033;-83
2022/01/08 04:45:56;;;;;;;4.10;0.98;;;0.90;99.90;;;;;;5054675;28;20021;-83
2022/01/08 04:48:22;;;;;;;5.28;0.93;;;0.80;99.90;;;;;;5054845;28;20029;-83
2022/01/08 04:50:47;;;;;;;7.03;1.42;;;0.80;99.90;;;;;;5053342;28;20475;-83
2022/01/08 04:53:13;;;;;;;27.08;3.63;;;0.80;99.90;;;;;;5053881;28;20025;-83
2022/01/08 04:55:39;;;;;;;36.00;5.72;;;0.80;99.90;;;;;;5054599;28;20078;-83
2022/01/08 04:58:06;;;;;;;9.27;2.97;;;0.70;99.90;;;;;;5054424;28;20111;-83
2022/01/08 05:00:32;;;;;;;75.53;7.68;;;0.90;99.90;;;;;;5054283;28;20040;-83
2022/01/08 05:02:59;;;;;;;7.65;1.52;;;0.90;99.90;;;;;;5054412;28;20029;-83
2022/01/08 05:05:25;;;;;;;6.20;2.30;;;0.90;99.90;;;;;;5053847;28;20029;-83
2022/01/08 05:07:51;;;;;;;6.30;1.60;;;0.90;99.90;;;;;;5053105;28;20123;-83
2022/01/08 05:10:17;;;;;;;3.65;0.60;;;0.90;99.90;;;;;;5053233;28;20142;-83
2022/01/08 05:12:43;;;;;;;4.72;1.08;;;0.80;99.90;;;;;;5054518;28;20114;-83
2022/01/08 05:15:09;;;;;;;5.53;0.82;;;0.90;99.90;;;;;;5053362;28;20550;-83
2022/01/08 05:17:36;;;;;;;3.65;0.77;;;0.80;99.90;;;;;;5053865;28;20151;-83
2022/01/08 05:20:08;;;;;;;2.33;0.77;;;0.90;99.90;;;;;;5052716;28;20033;-83
2022/01/08 05:22:52;;;;;;;5.50;0.70;;;0.80;99.90;;;;;;5052759;28;20018;-83
2022/01/08 05:25:20;;;;;;;6.40;0.80;;;0.70;99.90;;;;;;5052845;28;20037;-83
2022/01/08 05:27:46;;;;;;;4.60;0.82;;;0.70;99.90;;;;;;5052125;28;20056;-83
2022/01/08 05:30:14;;;;;;;4.10;0.82;;;0.60;99.90;;;;;;5052619;28;20106;-83
2022/01/08 05:32:40;;;;;;;2.50;0.47;;;0.70;99.90;;;;;;5052463;28;20052;-83
2022/01/08 05:35:06;;;;;;;5.97;0.90;;;0.60;99.90;;;;;;5053582;28;20415;-83
2022/01/08 05:37:32;;;;;;;3.40;0.70;;;0.70;99.90;;;;;;5053639;28;20024;-83
2022/01/08 05:39:57;;;;;;;4.28;0.93;;;0.70;99.90;;;;;;5052066;28;20378;-83
2022/01/08 05:42:23;;;;;;;2.63;0.65;;;0.70;99.90;;;;;;5052325;28;20025;-83
2022/01/08 05:44:48;;;;;;;6.97;0.77;;;0.70;99.90;;;;;;5053625;28;20384;-83
2022/01/08 05:47:14;;;;;;;4.75;0.70;;;0.80;99.90;;;;;;5052595;28;20366;-83
2022/01/08 05:49:40;;;;;;;3.22;0.55;;;0.70;99.90;;;;;;5053492;28;20027;-83
2022/01/08 05:52:07;;;;;;;3.90;0.93;;;0.60;99.90;;;;;;5053677;28;20108;-83
2022/01/08 05:54:33;;;;;;;5.25;0.90;;;0.60;99.90;;;;;;5052157;28;20025;-83
2022/01/08 05:56:58;;;;;;;3.90;0.80;;;0.70;99.90;;;;;;5052229;28;20025;-83
2022/01/08 05:59:26;;;;;;;4.65;0.75;;;0.60;99.90;;;;;;5053002;28;20103;-83
2022/01/08 06:01:55;;;;;;;3.30;0.93;;;0.70;99.90;;;;;;5051498;28;20033;-83
2022/01/08 06:04:21;;;;;;;6.53;1.10;;;0.70;99.90;;;;;;5051305;28;20029;-84
2022/01/08 06:06:46;;;;;;;2.53;0.85;;;0.70;99.90;;;;;;5052232;28;20021;-84
2022/01/08 06:09:12;;;;;;;5.57;0.80;;;0.60;99.90;;;;;;5053285;28;20049;-84
2022/01/08 06:11:38;;;;;;;3.10;0.60;;;0.60;99.90;;;;;;5052878;28;20024;-84
2022/01/08 06:14:04;;;;;;;4.90;0.90;;;0.50;99.90;;;;;;5052875;28;20703;-84
2022/01/08 06:16:34;;;;;;;5.15;1.05;;;0.60;99.90;;;;;;5052521;28;20029;-84
2022/01/08 06:19:02;;;;;;;2.05;0.60;;;0.60;99.90;;;;;;5051733;28;20135;-84
2022/01/08 06:21:28;;;;;;;5.25;0.90;;;0.50;99.90;;;;;;5052838;28;20029;-84
2022/01/08 06:23:54;;;;;;;4.47;1.00;;;0.40;99.90;;;;;;5052047;28;20134;-84
2022/01/08 06:26:19;;;;;;;2.03;0.70;;;0.50;99.90;;;;;;5052984;28;20520;-84
2022/01/08 06:28:45;;;;;;;2.58;0.88;;;0.50;99.90;;;;;;5053205;28;20025;-84
2022/01/08 06:31:10;;;;;;;10.10;1.20;;;0.30;99.90;;;;;;5052014;28;20079;-83
2022/01/08 06:33:36;;;;;;;7.75;1.40;;;0.30;99.90;;;;;;5053262;28;20601;-84
2022/01/08 06:36:01;;;;;;;5.32;1.42;;;0.30;99.90;;;;;;5051423;28;20025;-84
2022/01/08 06:38:27;;;;;;;6.53;1.02;;;0.20;99.90;;;;;;5051718;28;20024;-84
2022/01/08 06:40:53;;;;;;;4.75;1.30;;;0.10;99.90;;;;;;5051634;28;20032;-84
2022/01/08 06:43:18;;;;;;;9.20;1.45;;;0.20;99.90;;;;;;5052193;28;20029;-85
2022/01/08 06:45:44;;;;;;;5.03;1.25;;;0.10;99.90;;;;;;5048230;28;20021;-85
2022/01/08 06:48:09;;;;;;;5.47;1.10;;;0.10;99.90;;;;;;5052134;28;20021;-84
2022/01/08 06:50:35;;;;;;;4.45;1.17;;;0.30;99.90;;;;;;5052961;28;20029;-84
2022/01/08 06:53:00;;;;;;;9.63;1.52;;;0.60;99.90;;;;;;5050917;28;20115;-85
2022/01/08 06:55:26;;;;;;;11.60;1.33;;;0.40;99.90;;;;;;5046790;28;20032;-85
2022/01/08 06:57:54;;;;;;;6.93;1.42;;;0.40;99.90;;;;;;5047530;28;20106;-84
2022/01/08 07:00:20;;;;;;;4.57;1.20;;;0.40;99.90;;;;;;5038410;28;20025;-85
2022/01/08 07:02:45;;;;;;;7.07;1.48;;;0.40;99.90;;;;;;5035034;28;20378;-85
2022/01/08 07:05:11;;;;;;;2.40;1.30;;;0.50;99.90;;;;;;5038704;28;20531;-85
2022/01/08 07:07:36;;;;;;;6.03;1.30;;;0.70;99.90;;;;;;5037176;28;20017;-84
2022/01/08 07:10:02;;;;;;;10.45;2.05;;;0.90;99.90;;;;;;5033522;28;20069;-85
2022/01/08 07:12:28;;;;;;;7.72;1.63;;;0.90;99.90;;;;;;5038098;28;20029;-85
2022/01/08 07:14:54;;;;;;;7.22;1.92;;;1.00;99.90;;;;;;5040480;28;20420;-84
2022/01/08 07:17:19;;;;;;;6.63;1.60;;;1.10;99.90;;;;;;5048496;28;20025;-84
2022/01/08 07:19:45;;;;;;;4.05;1.85;;;1.10;99.90;;;;;;5056298;28;20071;-84
2022/01/08 07:22:10;;;;;;;5.43;1.60;;;1.10;99.90;;;;;;5056382;28;20029;-84
2022/01/08 07:24:36;;;;;;;4.28;1.85;;;1.00;99.90;;;;;;5055005;28;20074;-85
2022/01/08 07:27:01;;;;;;;7.53;2.10;;;1.00;99.90;;;;;;5055379;28;20077;-83
2022/01/08 07:29:27;;;;;;;8.02;2.40;;;0.90;99.90;;;;;;5054783;28;20045;-84
2022/01/08 07:31:52;;;;;;;7.72;2.30;;;0.80;99.90;;;;;;5056038;28;20202;-84
2022/01/08 07:34:18;;;;;;;7.13;2.38;;;0.80;99.90;;;;;;5055134;28;20644;-84
2022/01/08 07:36:43;;;;;;;6.05;2.17;;;0.80;99.90;;;;;;5056104;28;20025;-84
2022/01/08 07:39:09;;;;;;;4.57;1.98;;;0.80;99.90;;;;;;5056069;28;20583;-84
2022/01/08 07:41:34;;;;;;;9.45;2.33;;;0.80;99.90;;;;;;5055796;28;20131;-83
2022/01/08 07:44:00;;;;;;;3.40;2.13;;;0.80;99.90;;;;;;5053126;28;20237;-84
2022/01/08 07:46:26;;;;;;;6.65;2.10;;;0.90;99.90;;;;;;5050267;28;20063;-84
2022/01/08 07:48:51;;;;;;;7.07;2.53;;;0.80;99.90;;;;;;5050139;28;20025;-84
2022/01/08 07:51:17;;;;;;;7.38;2.60;;;0.80;99.90;;;;;;5045061;28;20116;-85
2022/01/08 07:53:42;;;;;;;7.07;2.70;;;0.80;99.90;;;;;;5050020;28;20381;-80
2022/01/08 07:56:08;;;;;;;11.55;2.80;;;0.90;99.90;;;;;;5051407;28;20524;-80
2022/01/08 07:58:33;;;;;;;5.80;2.70;;;1.00;99.90;;;;;;5040991;28;20032;-80
2022/01/08 08:00:59;;;;;;;4.97;2.47;;;0.90;99.90;;;;;;5043933;28;20483;-80
2022/01/08 08:03:25;;;;;;;6.07;2.63;;;1.20;99.90;;;;;;5046603;28;20329;-79
2022/01/08 08:05:50;;;;;;;9.90;3.88;;;1.30;99.90;;;;;;5043648;28;20029;-79
2022/01/08 08:08:18;;;;;;;7.47;2.72;;;1.50;99.90;;;;;;5051166;28;20013;-80
2022/01/08 08:10:47;;;;;;;7.82;2.80;;;1.50;99.90;;;;;;5051050;28;20025;-80
2022/01/08 08:13:13;;;;;;;7.00;2.72;;;1.60;99.90;;;;;;5051111;28;20025;-79
2022/01/08 08:15:39;;;;;;;7.60;3.05;;;1.70;99.90;;;;;;5051007;28;20033;-80
2022/01/08 08:18:04;;;;;;;16.25;3.08;;;1.90;99.90;;;;;;5051582;28;20021;-80
2022/01/08 08:20:30;;;;;;;8.07;3.35;;;1.90;99.90;;;;;;5048229;28;20477;-84
2022/01/08 08:22:55;;;;;;;10.95;3.30;;;2.00;99.90;;;;;;5035019;28;20021;-83
2022/01/08 08:25:21;;;;;;;13.43;3.75;;;2.10;99.90;;;;;;5051514;28;20059;-83
2022/01/08 08:27:46;;;;;;;11.20;5.78;;;2.00;99.90;;;;;;5054695;28;20033;-83
2022/01/08 08:30:12;;;;;;;9.23;4.30;;;2.00;99.90;;;;;;5054746;28;20096;-83
2022/01/08 08:32:38;;;;;;;7.72;3.75;;;1.90;99.90;;;;;;5053892;28;20021;-83
2022/01/08 08:35:05;;;;;;;11.95;3.97;;;1.90;99.90;;;;;;5051087;28;20108;-83
2022/01/08 08:37:31;;;;;;;7.75;4.13;;;1.90;99.90;;;;;;5050681;28;20029;-83
2022/01/08 08:39:56;;;;;;;9.95;5.15;;;1.90;99.90;;;;;;5050101;28;20021;-84
2022/01/08 08:42:22;;;;;;;12.15;4.53;;;1.90;99.90;;;;;;5046023;28;20438;-83
2022/01/08 08:44:47;;;;;;;11.38;4.18;;;1.90;99.90;;;;;;5045929;28;20017;-84
2022/01/08 08:47:13;;;;;;;13.45;4.35;;;2.00;99.90;;;;;;5046716;28;20028;-83
2022/01/08 08:49:39;;;;;;;10.80;4.15;;;2.00;99.90;;;;;;5044634;28;20032;-84
2022/01/08 08:52:05;;;;;;;8.80;3.33;;;2.10;99.90;;;;;;5032787;28;20025;-83
2022/01/08 08:54:30;;;;;;;9.07;3.63;;;2.20;99.90;;;;;;5049643;28;20020;-83
2022/01/08 08:56:56;;;;;;;11.90;4.03;;;2.30;99.90;;;;;;5034083;28;20105;-83
2022/01/08 08:59:23;;;;;;;12.60;3.60;;;2.30;99.90;;;;;;5049601;28;20017;-84
2022/01/08 09:01:49;;;;;;;11.80;5.30;;;2.40;99.90;;;;;;5047048;28;20187;-84
2022/01/08 09:04:15;;;;;;;8.23;3.20;;;2.40;99.90;;;;;;5049823;28;20455;-84
2022/01/08 09:06:41;;;;;;;4.53;2.83;;;2.40;99.90;;;;;;5044501;28;20041;-84
2022/01/08 09:09:06;;;;;;;7.25;2.65;;;2.30;99.90;;;;;;5032165;28;20053;-84
2022/01/08 09:11:32;;;;;;;5.50;2.30;;;2.40;99.90;;;;;;5049563;28;20106;-84
2022/01/08 09:13:58;;;;;;;6.97;2.63;;;2.40;99.90;;;;;;5040135;28;20040;-84
2022/01/08 09:16:23;;;;;;;7.32;2.50;;;2.50;99.90;;;;;;5044148;28;20396;-83
2022/01/08 09:18:49;;;;;;;8.27;2.28;;;2.60;99.90;;;;;;5044144;28;20029;-84
2022/01/08 09:21:16;;;;;;;4.00;2.45;;;2.70;99.90;;;;;;5041222;28;20044;-84
2022/01/08 09:23:41;;;;;;;8.43;2.67;;;2.80;99.90;;;;;;5049289;28;20024;-83
2022/01/08 09:26:08;;;;;;;8.43;2.78;;;2.90;99.90;;;;;;5049416;28;20025;-80
2022/01/08 09:28:33;;;;;;;10.88;2.58;;;3.00;99.90;;;;;;5049161;28;20104;-80
2022/01/08 09:30:59;;;;;;;12.85;2.70;;;3.20;99.90;;;;;;5049401;28;20112;-80
2022/01/08 09:33:25;;;;;;;6.72;2.50;;;3.30;99.90;;;;;;5037560;28;20393;-79
2022/01/08 09:35:52;;;;;;;7.43;2.40;;;3.40;99.90;;;;;;5040349;28;20485;-83
2022/01/08 09:38:18;;;;;;;11.95;2.95;;;3.60;99.90;;;;;;5048189;28;20218;-82
2022/01/08 09:40:43;;;;;;;7.43;2.38;;;3.70;99.90;;;;;;5048459;28;20120;-80
2022/01/08 09:43:09;;;;;;;12.27;2.85;;;3.80;99.90;;;;;;5049308;28;20021;-80
2022/01/08 09:45:35;;;;;;;7.75;2.85;;;3.90;99.90;;;;;;5041753;28;20065;-80
2022/01/08 09:48:01;;;;;;;4.85;2.70;;;4.00;99.90;;;;;;5049134;28;20061;-80
2022/01/08 09:50:27;;;;;;;6.80;2.35;;;4.10;99.90;;;;;;5049150;28;20079;-80
2022/01/08 09:52:57;;;;;;;9.32;2.42;;;4.20;99.90;;;;;;5047050;28;20029;-79
2022/01/08 09:55:24;;;;;;;5.25;2.58;;;4.30;99.90;;;;;;5048995;28;20120;-80
2022/01/08 09:57:50;;;;;;;5.97;2.20;;;4.30;99.90;;;;;;5049276;28;20398;-80
2022/01/08 10:00:19;;;;;;;7.95;2.30;;;4.30;99.90;;;;;;5048943;28;20481;-80
2022/01/08 10:02:45;;;;;;;5.03;2.17;;;4.40;99.90;;;;;;5047809;28;20032;-79
2022/01/08 10:05:14;;;;;;;9.57;2.85;;;4.40;99.90;;;;;;5048599;28;20013;-80
2022/01/08 10:07:40;;;;;;;6.38;3.00;;;4.40;99.90;;;;;;5049617;28;20079;-80
2022/01/08 10:10:12;;;;;;;7.68;2.80;;;4.50;99.90;;;;;;5047551;28;20045;-80
2022/01/08 10:12:44;;;;;;;9.25;3.22;;;4.50;99.90;;;;;;5049071;28;20017;-80
2022/01/08 10:17:55;;;;;;;7.95;2.53;;;4.80;99.90;;;;;;5043524;28;20082;-80
2022/01/08 10:20:31;;;;;;;7.60;2.67;;;4.80;99.90;;;;;;5048616;28;20251;-80
2022/01/08 10:23:15;;;;;;;7.43;2.45;;;4.90;99.90;;;;;;5047577;28;20797;-80
2022/01/08 10:25:42;;;;;;;11.95;3.65;;;4.90;99.90;;;;;;5048502;28;20533;-80
2022/01/08 10:28:08;;;;;;;8.75;3.28;;;5.00;99.90;;;;;;5047383;28;20017;-80
2022/01/08 10:30:34;;;;;;;6.72;2.92;;;4.90;99.90;;;;;;5048558;28;20037;-80
2022/01/08 10:33:01;;;;;;;10.95;3.25;;;4.90;99.90;;;;;;5048789;28;20439;-80
2022/01/08 10:35:50;;;;;;;11.95;4.25;;;4.90;99.90;;;;;;5047645;28;20032;-80
2022/01/08 10:38:16;;;;;;;8.38;3.13;;;4.90;99.90;;;;;;5048929;28;20071;-80
2022/01/08 10:40:42;;;;;;;6.68;3.10;;;5.00;99.90;;;;;;5048636;28;20455;-80
2022/01/08 10:43:24;;;;;;;7.35;3.08;;;4.90;99.90;;;;;;5047263;28;20083;-80
2022/01/08 10:45:50;;;;;;;9.25;3.05;;;5.00;99.90;;;;;;5048683;28;20473;-80
2022/01/08 10:48:32;;;;;;;10.18;2.83;;;4.90;99.90;;;;;;5048811;28;20340;-79
2022/01/08 10:51:19;;;;;;;10.98;3.53;;;5.00;99.90;;;;;;5050236;28;20555;-79
2022/01/08 10:53:58;;;;;;;12.30;4.22;;;5.10;99.90;;;;;;5046392;28;20116;-80
2022/01/08 10:56:25;;;;;;;7.43;3.30;;;5.20;99.90;;;;;;5052179;28;20051;-80
2022/01/08 10:58:53;;;;;;;11.77;3.03;;;5.10;99.90;;;;;;5054002;28;20021;-79
2022/01/08 11:01:45;;;;;;;9.07;3.28;;;5.00;99.90;;;;;;5051010;28;20036;-80
2022/01/08 11:04:16;;;;;;;8.80;3.13;;;4.90;99.90;;;;;;5051337;28;20021;-79
2022/01/08 11:06:49;;;;;;;8.80;3.00;;;4.90;99.90;;;;;;5052357;28;20116;-80
2022/01/08 11:09:14;;;;;;;7.35;2.22;;;4.90;99.90;;;;;;5049239;28;20053;-79
2022/01/08 11:11:41;;;;;;;10.57;2.95;;;5.00;99.90;;;;;;5040524;28;20432;-80
2022/01/08 11:14:08;;;;;;;12.07;3.78;;;5.00;99.90;;;;;;5044561;28;20021;-80
2022/01/08 11:16:34;;;;;;;7.70;3.08;;;5.20;99.90;;;;;;5046324;28;20025;-80
2022/01/08 11:19:02;;;;;;;9.68;3.47;;;5.10;99.90;;;;;;5044606;28;20159;-80
2022/01/08 11:21:30;;;;;;;7.80;3.75;;;5.10;72.90;;;;;;5040771;28;20060;-80
2022/01/08 11:23:59;;;;;;;11.32;4.40;;;5.00;17.50;;;;;;5049192;28;20079;-80
2022/01/08 11:26:26;;;;;;;5.38;3.05;;;5.00;55.10;;;;;;5050244;28;20166;-80
2022/01/08 11:28:59;;;;;;;6.88;3.70;;;5.00;70.40;;;;;;5044516;28;20029;-79
2022/01/08 11:31:29;;;;;;;13.13;4.07;;;5.00;30.70;;;;;;5041707;28;20056;-80
2022/01/08 11:33:59;;;;;;;;;;;5.00;79.20;;;;;;5040566;28;20461;-79
2022/01/08 11:36:26;;;;;;;14.52;4.80;;;5.10;49.10;;;;;;5046044;28;19939;-80
2022/01/08 11:38:55;;;;;;;9.05;4.97;;;4.90;40.00;;;;;;5050352;28;20275;-79
2022/01/08 11:41:22;;;;;;;13.50;6.83;;;5.00;36.60;;;;;;5056179;28;20029;-79
2022/01/08 11:43:50;;;;;;;13.27;6.60;;;5.00;1.00;;;;;;5054759;28;20029;-81
2022/01/08 11:46:16;;;;;;;12.25;6.60;;;5.00;1.00;;;;;;5056052;28;20031;-81
2022/01/08 11:48:48;;;;;;;13.38;6.45;;;4.90;1.00;;;;;;5055986;28;20032;-81
2022/01/08 11:51:19;;;;;;;11.55;6.47;;;4.90;1.00;;;;;;5055721;28;20108;-81
2022/01/08 11:53:48;;;;;;;10.60;6.70;;;4.90;10.80;;;;;;5055884;28;20104;-81
2022/01/08 11:56:27;;;;;;;12.48;7.75;;;5.00;1.00;;;;;;5055650;28;20039;-81
2022/01/08 11:59:04;;;;;;;12.98;6.40;;;4.90;1.00;;;;;;5055711;28;20032;-83
2022/01/08 12:01:30;;;;;;;9.90;6.80;;;4.90;1.00;;;;;;5054216;28;20390;-81
2022/01/08 12:03:55;;;;;;;10.40;7.03;;;4.90;1.00;;;;;;5054459;28;20032;-81
2022/01/08 12:12:07;;;;;;;12.48;7.45;;;4.90;1.00;;;;;;5056062;28;20036;-81
2022/01/08 12:14:36;;;;;;;11.55;5.63;;;5.00;99.90;;;;;;5056647;28;20049;-81
2022/01/08 12:17:18;;;;;;;11.30;6.03;;;4.90;99.90;;;;;;5052132;28;20029;-82
2022/01/08 12:19:50;;;;;;;8.57;5.38;;;5.00;99.90;;;;;;5049660;28;20024;-82
2022/01/08 12:22:15;;;;;;;11.95;5.10;;;5.00;99.90;;;;;;5051631;28;20146;-81
2022/01/08 12:24:42;;;;;;;9.45;4.75;;;5.10;99.90;;;;;;5054234;28;20112;-81
2022/01/08 12:27:34;;;;;;;7.70;3.85;;;5.00;99.90;;;;;;5054935;28;20040;-81
2022/01/08 12:30:02;;;;;;;7.53;3.70;;;5.00;99.90;;;;;;5055208;28;20051;-81
2022/01/08 12:32:35;;;;;;;5.57;3.47;;;5.00;99.90;;;;;;5053976;28;20029;-81
2022/01/08 12:35:17;;;;;;;6.03;3.40;;;5.00;99.90;;;;;;5050579;28;20024;-82
2022/01/08 12:37:46;;;;;;;11.20;4.75;;;4.90;99.90;;;;;;5044692;28;20024;-81
2022/01/08 12:40:30;;;;;;;10.13;4.80;;;4.90;99.90;;;;;;5046710;28;20017;-82
2022/01/08 12:42:56;;;;;;;1.85;1.52;;;4.80;99.90;;;;;;5034241;28;20045;-82
2022/01/08 12:45:33;;;;;;;3.38;1.73;;;4.80;99.90;;;;;;5038069;28;20098;-82
2022/01/08 12:48:08;;;;;;;6.75;1.45;;;4.70;99.90;;;;;;5041452;28;20021;-82
2022/01/08 12:51:02;;;;;;;2.33;1.20;;;4.80;99.90;;;;;;5048301;28;20021;-82
2022/01/08 12:53:30;;;;;;;3.25;1.10;;;4.70;99.90;;;;;;5061804;28;20053;-82
2022/01/08 12:55:56;;;;;;;3.47;1.45;;;4.60;99.90;;;;;;5048810;28;20048;-82
2022/01/08 12:58:25;;;;;;;2.38;1.00;;;4.60;99.90;;;;;;5042370;28;20456;-82
2022/01/08 13:01:05;;;;;;;1.23;1.00;;;4.60;99.90;;;;;;5039700;28;20412;-82
2022/01/08 13:03:37;;;;;;;1.58;1.05;;;4.70;99.90;;;;;;5054072;28;20388;-80
2022/01/08 13:06:03;;;;;;;3.30;1.67;;;4.60;99.90;;;;;;5054432;28;20039;-79
2022/01/08 13:08:31;;;;;;;2.90;1.50;;;4.60;99.90;;;;;;5053047;28;20049;-79
2022/01/08 13:11:00;;;;;;;4.47;1.77;;;4.60;99.90;;;;;;5051299;28;20113;-81
2022/01/08 13:13:45;;;;;;;3.30;1.70;;;4.60;99.90;;;;;;5049061;28;20052;-80
2022/01/08 13:16:15;;;;;;;4.30;2.33;;;4.60;99.90;;;;;;5045922;28;20013;-81
2022/01/08 13:18:46;;;;;;;3.45;2.60;;;4.50;99.90;;;;;;5043619;28;20090;-80
2022/01/08 13:21:13;;;;;;;4.97;2.72;;;4.50;99.90;;;;;;5049073;28;20562;-81
2022/01/08 13:23:47;;;;;;;7.18;3.30;;;4.40;99.90;;;;;;5048059;28;20013;-81
2022/01/08 13:26:14;;;;;;;6.72;3.97;;;4.40;99.90;;;;;;5042665;28;20484;-80